sensor_id;sensor_type;location;lat;lon;timestamp;P1;durP1;ratioP1;P2;durP2;ratioP2
34711;SDS011;20941;42.408;25.634;2024-01-06T00:00:20;14.02;;;7.10;;
34711;SDS011;20941;42.408;25.634;2024-01-06T00:02:48;11.20;;;6.05;;
34711;SDS011;20941;42.408;25.634;2024-01-06T00:05:14;10.25;;;5.68;;
34711;SDS011;20941;42.408;25.634;2024-01-06T00:07:39;8.88;;;4.47;;
34711;SDS011;20941;42.408;25.634;2024-01-06T00:10:05;14.77;;;7.45;;
34711;SDS011;20941;42.408;25.634;2024-01-06T00:12:30;18.33;;;8.43;;
34711;SDS011;20941;42.408;25.634;2024-01-06T00:14:55;22.27;;;10.70;;
34711;SDS011;20941;42.408;25.634;2024-01-06T00:17:21;10.82;;;6.20;;
34711;SDS011;20941;42.408;25.634;2024-01-06T00:19:46;17.13;;;6.60;;
34711;SDS011;20941;42.408;25.634;2024-01-06T00:22:16;13.48;;;4.53;;
34711;SDS011;20941;42.408;25.634;2024-01-06T00:24:41;12.55;;;5.03;;
34711;SDS011;20941;42.408;25.634;2024-01-06T00:27:06;9.60;;;3.40;;
34711;SDS011;20941;42.408;25.634;2024-01-06T00:29:32;8.55;;;3.22;;
34711;SDS011;20941;42.408;25.634;2024-01-06T00:31:57;7.97;;;3.83;;
34711;SDS011;20941;42.408;25.634;2024-01-06T00:34:23;14.07;;;5.50;;
34711;SDS011;20941;42.408;25.634;2024-01-06T00:36:48;13.30;;;8.13;;
34711;SDS011;20941;42.408;25.634;2024-01-06T00:39:13;15.93;;;7.70;;
34711;SDS011;20941;42.408;25.634;2024-01-06T00:41:39;13.05;;;5.90;;
34711;SDS011;20941;42.408;25.634;2024-01-06T00:44:04;12.10;;;5.25;;
34711;SDS011;20941;42.408;25.634;2024-01-06T00:46:29;8.13;;;3.97;;
34711;SDS011;20941;42.408;25.634;2024-01-06T00:48:55;10.77;;;4.50;;
34711;SDS011;20941;42.408;25.634;2024-01-06T00:51:20;15.48;;;7.45;;
34711;SDS011;20941;42.408;25.634;2024-01-06T00:53:46;11.52;;;6.18;;
34711;SDS011;20941;42.408;25.634;2024-01-06T00:56:12;6.95;;;4.68;;
34711;SDS011;20941;42.408;25.634;2024-01-06T00:58:37;9.13;;;5.00;;
34711;SDS011;20941;42.408;25.634;2024-01-06T01:01:05;10.93;;;5.70;;
34711;SDS011;20941;42.408;25.634;2024-01-06T01:03:31;15.10;;;5.28;;
34711;SDS011;20941;42.408;25.634;2024-01-06T01:05:56;10.05;;;4.00;;
34711;SDS011;20941;42.408;25.634;2024-01-06T01:08:21;11.30;;;4.47;;
34711;SDS011;20941;42.408;25.634;2024-01-06T01:10:47;8.63;;;5.55;;
34711;SDS011;20941;42.408;25.634;2024-01-06T01:13:12;15.13;;;7.35;;
34711;SDS011;20941;42.408;25.634;2024-01-06T01:15:38;12.65;;;6.68;;
34711;SDS011;20941;42.408;25.634;2024-01-06T01:18:03;10.45;;;5.88;;
34711;SDS011;20941;42.408;25.634;2024-01-06T01:20:28;15.43;;;7.18;;
34711;SDS011;20941;42.408;25.634;2024-01-06T01:22:54;12.02;;;6.70;;
34711;SDS011;20941;42.408;25.634;2024-01-06T01:25:20;13.95;;;6.43;;
34711;SDS011;20941;42.408;25.634;2024-01-06T01:27:45;10.75;;;5.30;;
34711;SDS011;20941;42.408;25.634;2024-01-06T01:30:10;12.65;;;5.47;;
34711;SDS011;20941;42.408;25.634;2024-01-06T01:32:36;11.10;;;5.30;;
34711;SDS011;20941;42.408;25.634;2024-01-06T01:35:02;8.13;;;4.28;;
34711;SDS011;20941;42.408;25.634;2024-01-06T01:37:28;12.85;;;5.70;;
34711;SDS011;20941;42.408;25.634;2024-01-06T01:39:53;9.43;;;3.33;;
34711;SDS011;20941;42.408;25.634;2024-01-06T01:42:19;7.22;;;3.50;;
34711;SDS011;20941;42.408;25.634;2024-01-06T01:44:44;7.75;;;3.58;;
34711;SDS011;20941;42.408;25.634;2024-01-06T01:47:09;6.18;;;3.63;;
34711;SDS011;20941;42.408;25.634;2024-01-06T01:49:35;8.82;;;3.88;;
34711;SDS011;20941;42.408;25.634;2024-01-06T01:52:01;5.13;;;3.35;;
34711;SDS011;20941;42.408;25.634;2024-01-06T01:54:26;5.97;;;3.70;;
34711;SDS011;20941;42.408;25.634;2024-01-06T01:56:52;7.20;;;3.25;;
34711;SDS011;20941;42.408;25.634;2024-01-06T01:59:17;5.68;;;3.08;;
34711;SDS011;20941;42.408;25.634;2024-01-06T02:01:43;6.50;;;3.20;;
34711;SDS011;20941;42.408;25.634;2024-01-06T02:04:09;6.25;;;3.20;;
34711;SDS011;20941;42.408;25.634;2024-01-06T02:06:34;8.65;;;4.07;;
34711;SDS011;20941;42.408;25.634;2024-01-06T02:09:00;8.27;;;4.63;;
34711;SDS011;20941;42.408;25.634;2024-01-06T02:11:25;5.53;;;3.92;;
34711;SDS011;20941;42.408;25.634;2024-01-06T02:13:51;10.70;;;5.53;;
34711;SDS011;20941;42.408;25.634;2024-01-06T02:16:16;6.93;;;3.58;;
34711;SDS011;20941;42.408;25.634;2024-01-06T02:18:42;7.65;;;3.60;;
34711;SDS011;20941;42.408;25.634;2024-01-06T02:21:07;14.77;;;4.18;;
34711;SDS011;20941;42.408;25.634;2024-01-06T02:23:34;6.68;;;3.47;;
34711;SDS011;20941;42.408;25.634;2024-01-06T02:26:00;6.43;;;4.10;;
34711;SDS011;20941;42.408;25.634;2024-01-06T02:28:25;7.45;;;4.15;;
34711;SDS011;20941;42.408;25.634;2024-01-06T02:30:51;11.23;;;5.07;;
34711;SDS011;20941;42.408;25.634;2024-01-06T02:33:16;7.30;;;3.70;;
34711;SDS011;20941;42.408;25.634;2024-01-06T02:35:44;6.22;;;4.05;;
34711;SDS011;20941;42.408;25.634;2024-01-06T02:38:09;9.02;;;4.45;;
34711;SDS011;20941;42.408;25.634;2024-01-06T02:40:35;8.75;;;4.70;;
34711;SDS011;20941;42.408;25.634;2024-01-06T02:43:00;10.77;;;5.10;;
34711;SDS011;20941;42.408;25.634;2024-01-06T02:45:26;7.88;;;4.60;;
34711;SDS011;20941;42.408;25.634;2024-01-06T02:47:51;8.88;;;4.85;;
34711;SDS011;20941;42.408;25.634;2024-01-06T02:50:17;11.68;;;4.95;;
34711;SDS011;20941;42.408;25.634;2024-01-06T02:52:43;8.45;;;5.15;;
34711;SDS011;20941;42.408;25.634;2024-01-06T02:55:09;8.63;;;5.22;;
34711;SDS011;20941;42.408;25.634;2024-01-06T02:57:34;12.80;;;6.85;;
34711;SDS011;20941;42.408;25.634;2024-01-06T03:00:00;11.70;;;5.72;;
34711;SDS011;20941;42.408;25.634;2024-01-06T03:02:26;11.73;;;7.03;;
34711;SDS011;20941;42.408;25.634;2024-01-06T03:04:51;16.58;;;9.15;;
34711;SDS011;20941;42.408;25.634;2024-01-06T03:07:17;18.42;;;10.10;;
34711;SDS011;20941;42.408;25.634;2024-01-06T03:09:43;18.08;;;11.10;;
34711;SDS011;20941;42.408;25.634;2024-01-06T03:12:08;24.70;;;11.88;;
34711;SDS011;20941;42.408;25.634;2024-01-06T03:14:34;20.55;;;11.50;;
34711;SDS011;20941;42.408;25.634;2024-01-06T03:17:00;22.05;;;11.40;;
34711;SDS011;20941;42.408;25.634;2024-01-06T03:19:25;19.52;;;11.30;;
34711;SDS011;20941;42.408;25.634;2024-01-06T03:21:52;14.65;;;8.20;;
34711;SDS011;20941;42.408;25.634;2024-01-06T03:24:17;19.02;;;9.80;;
34711;SDS011;20941;42.408;25.634;2024-01-06T03:26:43;22.25;;;10.45;;
34711;SDS011;20941;42.408;25.634;2024-01-06T03:29:08;19.83;;;11.20;;
34711;SDS011;20941;42.408;25.634;2024-01-06T03:31:34;20.48;;;9.63;;
34711;SDS011;20941;42.408;25.634;2024-01-06T03:33:59;10.63;;;6.22;;
34711;SDS011;20941;42.408;25.634;2024-01-06T03:36:25;9.88;;;6.25;;
34711;SDS011;20941;42.408;25.634;2024-01-06T03:38:50;13.25;;;6.57;;
34711;SDS011;20941;42.408;25.634;2024-01-06T03:41:15;13.20;;;7.90;;
34711;SDS011;20941;42.408;25.634;2024-01-06T03:43:41;15.13;;;9.10;;
34711;SDS011;20941;42.408;25.634;2024-01-06T03:46:07;17.08;;;8.90;;
34711;SDS011;20941;42.408;25.634;2024-01-06T03:48:32;16.85;;;9.70;;
34711;SDS011;20941;42.408;25.634;2024-01-06T03:51:01;18.77;;;9.88;;
34711;SDS011;20941;42.408;25.634;2024-01-06T03:53:26;17.67;;;9.60;;
34711;SDS011;20941;42.408;25.634;2024-01-06T03:55:52;17.52;;;9.73;;
34711;SDS011;20941;42.408;25.634;2024-01-06T03:58:17;17.33;;;7.72;;
34711;SDS011;20941;42.408;25.634;2024-01-06T04:00:43;20.25;;;8.48;;
34711;SDS011;20941;42.408;25.634;2024-01-06T04:03:08;18.45;;;9.60;;
34711;SDS011;20941;42.408;25.634;2024-01-06T04:05:34;17.17;;;10.30;;
34711;SDS011;20941;42.408;25.634;2024-01-06T04:07:59;19.63;;;10.50;;
34711;SDS011;20941;42.408;25.634;2024-01-06T04:10:24;16.40;;;9.57;;
34711;SDS011;20941;42.408;25.634;2024-01-06T04:12:50;18.50;;;10.48;;
34711;SDS011;20941;42.408;25.634;2024-01-06T04:15:15;22.25;;;10.95;;
34711;SDS011;20941;42.408;25.634;2024-01-06T04:17:41;19.60;;;11.30;;
34711;SDS011;20941;42.408;25.634;2024-01-06T04:20:07;21.70;;;11.32;;
34711;SDS011;20941;42.408;25.634;2024-01-06T04:22:32;21.55;;;11.55;;
34711;SDS011;20941;42.408;25.634;2024-01-06T04:24:58;18.92;;;10.27;;
34711;SDS011;20941;42.408;25.634;2024-01-06T04:27:23;23.27;;;10.05;;
34711;SDS011;20941;42.408;25.634;2024-01-06T04:29:49;21.85;;;10.43;;
34711;SDS011;20941;42.408;25.634;2024-01-06T04:32:18;13.88;;;6.50;;
34711;SDS011;20941;42.408;25.634;2024-01-06T04:34:43;21.63;;;9.25;;
34711;SDS011;20941;42.408;25.634;2024-01-06T04:37:09;11.23;;;5.65;;
34711;SDS011;20941;42.408;25.634;2024-01-06T04:39:34;14.38;;;8.82;;
34711;SDS011;20941;42.408;25.634;2024-01-06T04:41:59;18.92;;;8.82;;
34711;SDS011;20941;42.408;25.634;2024-01-06T04:44:25;12.95;;;7.65;;
34711;SDS011;20941;42.408;25.634;2024-01-06T04:46:50;15.20;;;8.23;;
34711;SDS011;20941;42.408;25.634;2024-01-06T04:49:16;16.73;;;8.57;;
34711;SDS011;20941;42.408;25.634;2024-01-06T04:51:41;18.08;;;9.27;;
34711;SDS011;20941;42.408;25.634;2024-01-06T04:54:06;17.52;;;8.25;;
34711;SDS011;20941;42.408;25.634;2024-01-06T04:56:32;17.73;;;8.70;;
34711;SDS011;20941;42.408;25.634;2024-01-06T04:58:57;16.25;;;9.15;;
34711;SDS011;20941;42.408;25.634;2024-01-06T05:01:23;17.52;;;9.55;;
34711;SDS011;20941;42.408;25.634;2024-01-06T05:03:48;16.63;;;9.35;;
34711;SDS011;20941;42.408;25.634;2024-01-06T05:06:13;20.10;;;9.68;;
34711;SDS011;20941;42.408;25.634;2024-01-06T05:08:39;17.35;;;9.38;;
34711;SDS011;20941;42.408;25.634;2024-01-06T05:11:09;19.58;;;10.05;;
34711;SDS011;20941;42.408;25.634;2024-01-06T05:13:35;18.45;;;10.35;;
34711;SDS011;20941;42.408;25.634;2024-01-06T05:16:00;17.05;;;9.52;;
34711;SDS011;20941;42.408;25.634;2024-01-06T05:18:26;17.92;;;10.27;;
34711;SDS011;20941;42.408;25.634;2024-01-06T05:20:51;19.73;;;9.73;;
34711;SDS011;20941;42.408;25.634;2024-01-06T05:23:16;24.65;;;11.27;;
34711;SDS011;20941;42.408;25.634;2024-01-06T05:25:42;39.17;;;24.25;;
34711;SDS011;20941;42.408;25.634;2024-01-06T05:28:07;56.08;;;33.33;;
34711;SDS011;20941;42.408;25.634;2024-01-06T05:30:33;42.10;;;24.77;;
34711;SDS011;20941;42.408;25.634;2024-01-06T05:32:58;23.00;;;13.18;;
34711;SDS011;20941;42.408;25.634;2024-01-06T05:35:23;26.80;;;16.00;;
34711;SDS011;20941;42.408;25.634;2024-01-06T05:37:49;27.20;;;16.85;;
34711;SDS011;20941;42.408;25.634;2024-01-06T05:40:14;31.30;;;17.15;;
34711;SDS011;20941;42.408;25.634;2024-01-06T05:42:39;42.30;;;20.52;;
34711;SDS011;20941;42.408;25.634;2024-01-06T05:45:05;55.67;;;30.52;;
34711;SDS011;20941;42.408;25.634;2024-01-06T05:47:30;43.17;;;26.20;;
34711;SDS011;20941;42.408;25.634;2024-01-06T05:49:56;40.08;;;22.98;;
34711;SDS011;20941;42.408;25.634;2024-01-06T05:52:22;32.75;;;18.98;;
34711;SDS011;20941;42.408;25.634;2024-01-06T05:54:48;19.48;;;10.13;;
34711;SDS011;20941;42.408;25.634;2024-01-06T05:57:14;27.05;;;15.10;;
34711;SDS011;20941;42.408;25.634;2024-01-06T05:59:39;46.80;;;23.67;;
34711;SDS011;20941;42.408;25.634;2024-01-06T06:02:05;42.85;;;21.52;;
34711;SDS011;20941;42.408;25.634;2024-01-06T06:04:31;44.33;;;22.40;;
34711;SDS011;20941;42.408;25.634;2024-01-06T06:06:56;41.90;;;22.63;;
34711;SDS011;20941;42.408;25.634;2024-01-06T06:09:21;38.22;;;17.73;;
34711;SDS011;20941;42.408;25.634;2024-01-06T06:11:47;27.58;;;16.50;;
34711;SDS011;20941;42.408;25.634;2024-01-06T06:14:13;28.75;;;16.10;;
34711;SDS011;20941;42.408;25.634;2024-01-06T06:16:39;24.45;;;12.70;;
34711;SDS011;20941;42.408;25.634;2024-01-06T06:19:04;29.20;;;10.95;;
34711;SDS011;20941;42.408;25.634;2024-01-06T06:21:29;23.30;;;11.38;;
34711;SDS011;20941;42.408;25.634;2024-01-06T06:23:55;24.20;;;11.25;;
34711;SDS011;20941;42.408;25.634;2024-01-06T06:26:20;17.35;;;7.10;;
34711;SDS011;20941;42.408;25.634;2024-01-06T06:28:46;15.30;;;7.32;;
34711;SDS011;20941;42.408;25.634;2024-01-06T06:31:11;17.98;;;6.72;;
34711;SDS011;20941;42.408;25.634;2024-01-06T06:33:36;13.15;;;7.22;;
34711;SDS011;20941;42.408;25.634;2024-01-06T06:36:02;15.23;;;6.65;;
34711;SDS011;20941;42.408;25.634;2024-01-06T06:38:27;16.58;;;6.43;;
34711;SDS011;20941;42.408;25.634;2024-01-06T06:40:53;17.35;;;6.30;;
34711;SDS011;20941;42.408;25.634;2024-01-06T06:43:18;17.45;;;7.40;;
34711;SDS011;20941;42.408;25.634;2024-01-06T06:45:44;15.85;;;6.22;;
34711;SDS011;20941;42.408;25.634;2024-01-06T06:48:09;17.33;;;8.40;;
34711;SDS011;20941;42.408;25.634;2024-01-06T06:50:35;34.22;;;19.65;;
34711;SDS011;20941;42.408;25.634;2024-01-06T06:53:01;32.92;;;16.88;;
34711;SDS011;20941;42.408;25.634;2024-01-06T06:55:26;38.95;;;17.70;;
34711;SDS011;20941;42.408;25.634;2024-01-06T06:57:52;25.45;;;11.20;;
34711;SDS011;20941;42.408;25.634;2024-01-06T07:00:18;20.10;;;10.38;;
34711;SDS011;20941;42.408;25.634;2024-01-06T07:02:43;21.23;;;9.75;;
34711;SDS011;20941;42.408;25.634;2024-01-06T07:05:08;24.40;;;8.65;;
34711;SDS011;20941;42.408;25.634;2024-01-06T07:07:34;21.08;;;8.90;;
34711;SDS011;20941;42.408;25.634;2024-01-06T07:10:02;21.85;;;8.48;;
34711;SDS011;20941;42.408;25.634;2024-01-06T07:12:30;22.08;;;8.35;;
34711;SDS011;20941;42.408;25.634;2024-01-06T07:14:55;34.33;;;15.38;;
34711;SDS011;20941;42.408;25.634;2024-01-06T07:17:21;22.92;;;11.48;;
34711;SDS011;20941;42.408;25.634;2024-01-06T07:19:46;25.48;;;10.65;;
34711;SDS011;20941;42.408;25.634;2024-01-06T07:22:11;18.38;;;8.02;;
34711;SDS011;20941;42.408;25.634;2024-01-06T07:24:37;22.60;;;9.77;;
34711;SDS011;20941;42.408;25.634;2024-01-06T07:27:02;42.75;;;22.15;;
34711;SDS011;20941;42.408;25.634;2024-01-06T07:29:31;39.95;;;21.10;;
34711;SDS011;20941;42.408;25.634;2024-01-06T07:31:56;32.13;;;12.90;;
34711;SDS011;20941;42.408;25.634;2024-01-06T07:34:22;16.08;;;8.30;;
34711;SDS011;20941;42.408;25.634;2024-01-06T07:36:47;14.25;;;7.75;;
34711;SDS011;20941;42.408;25.634;2024-01-06T07:39:12;17.33;;;7.93;;
34711;SDS011;20941;42.408;25.634;2024-01-06T07:41:38;17.52;;;8.30;;
34711;SDS011;20941;42.408;25.634;2024-01-06T07:44:03;23.83;;;9.10;;
34711;SDS011;20941;42.408;25.634;2024-01-06T07:46:29;20.73;;;7.28;;
34711;SDS011;20941;42.408;25.634;2024-01-06T07:48:56;20.02;;;7.45;;
34711;SDS011;20941;42.408;25.634;2024-01-06T07:51:21;13.88;;;6.80;;
34711;SDS011;20941;42.408;25.634;2024-01-06T07:53:47;19.92;;;7.55;;
34711;SDS011;20941;42.408;25.634;2024-01-06T07:56:12;21.15;;;8.98;;
34711;SDS011;20941;42.408;25.634;2024-01-06T07:58:37;25.33;;;11.10;;
34711;SDS011;20941;42.408;25.634;2024-01-06T08:01:03;37.55;;;16.02;;
34711;SDS011;20941;42.408;25.634;2024-01-06T08:03:28;33.42;;;19.02;;
34711;SDS011;20941;42.408;25.634;2024-01-06T08:05:53;27.50;;;13.82;;
34711;SDS011;20941;42.408;25.634;2024-01-06T08:08:19;19.70;;;10.40;;
34711;SDS011;20941;42.408;25.634;2024-01-06T08:10:46;28.05;;;13.20;;
34711;SDS011;20941;42.408;25.634;2024-01-06T08:13:11;15.15;;;8.95;;
34711;SDS011;20941;42.408;25.634;2024-01-06T08:15:37;21.42;;;9.07;;
34711;SDS011;20941;42.408;25.634;2024-01-06T08:18:03;17.52;;;7.55;;
34711;SDS011;20941;42.408;25.634;2024-01-06T08:20:29;16.98;;;7.43;;
34711;SDS011;20941;42.408;25.634;2024-01-06T08:22:54;17.08;;;7.15;;
34711;SDS011;20941;42.408;25.634;2024-01-06T08:25:20;19.23;;;7.43;;
34711;SDS011;20941;42.408;25.634;2024-01-06T08:27:45;19.98;;;7.93;;
34711;SDS011;20941;42.408;25.634;2024-01-06T08:30:11;20.25;;;7.10;;
34711;SDS011;20941;42.408;25.634;2024-01-06T08:32:37;16.30;;;7.68;;
34711;SDS011;20941;42.408;25.634;2024-01-06T08:35:02;20.33;;;7.88;;
34711;SDS011;20941;42.408;25.634;2024-01-06T08:37:29;29.65;;;9.10;;
34711;SDS011;20941;42.408;25.634;2024-01-06T08:39:54;25.10;;;9.40;;
34711;SDS011;20941;42.408;25.634;2024-01-06T08:42:19;24.60;;;8.90;;
34711;SDS011;20941;42.408;25.634;2024-01-06T08:44:45;21.27;;;9.35;;
34711;SDS011;20941;42.408;25.634;2024-01-06T08:47:11;20.60;;;8.65;;
34711;SDS011;20941;42.408;25.634;2024-01-06T08:49:37;24.70;;;8.82;;
34711;SDS011;20941;42.408;25.634;2024-01-06T08:52:02;15.55;;;7.78;;
34711;SDS011;20941;42.408;25.634;2024-01-06T08:54:28;18.77;;;8.13;;
34711;SDS011;20941;42.408;25.634;2024-01-06T08:56:54;68.65;;;11.93;;
34711;SDS011;20941;42.408;25.634;2024-01-06T08:59:19;19.17;;;8.05;;
34711;SDS011;20941;42.408;25.634;2024-01-06T09:01:45;29.60;;;9.77;;
34711;SDS011;20941;42.408;25.634;2024-01-06T09:04:10;38.97;;;10.43;;
34711;SDS011;20941;42.408;25.634;2024-01-06T09:06:37;69.72;;;13.32;;
34711;SDS011;20941;42.408;25.634;2024-01-06T09:09:03;51.63;;;14.27;;
34711;SDS011;20941;42.408;25.634;2024-01-06T09:11:28;50.60;;;11.80;;
34711;SDS011;20941;42.408;25.634;2024-01-06T09:13:54;51.88;;;11.07;;
34711;SDS011;20941;42.408;25.634;2024-01-06T09:16:19;72.97;;;12.25;;
34711;SDS011;20941;42.408;25.634;2024-01-06T09:18:45;26.85;;;8.32;;
34711;SDS011;20941;42.408;25.634;2024-01-06T09:21:10;22.70;;;9.75;;
34711;SDS011;20941;42.408;25.634;2024-01-06T09:23:35;58.70;;;11.38;;
34711;SDS011;20941;42.408;25.634;2024-01-06T09:26:01;50.72;;;11.50;;
34711;SDS011;20941;42.408;25.634;2024-01-06T09:28:26;24.40;;;8.88;;
34711;SDS011;20941;42.408;25.634;2024-01-06T09:30:52;29.65;;;9.45;;
34711;SDS011;20941;42.408;25.634;2024-01-06T09:33:20;22.27;;;9.80;;
34711;SDS011;20941;42.408;25.634;2024-01-06T09:35:46;28.90;;;10.68;;
34711;SDS011;20941;42.408;25.634;2024-01-06T09:38:12;31.25;;;10.75;;
34711;SDS011;20941;42.408;25.634;2024-01-06T09:40:41;27.17;;;11.27;;
34711;SDS011;20941;42.408;25.634;2024-01-06T09:43:06;40.42;;;15.80;;
34711;SDS011;20941;42.408;25.634;2024-01-06T09:45:32;36.72;;;19.85;;
34711;SDS011;20941;42.408;25.634;2024-01-06T09:47:59;46.95;;;19.08;;
34711;SDS011;20941;42.408;25.634;2024-01-06T09:50:27;20.67;;;10.63;;
34711;SDS011;20941;42.408;25.634;2024-01-06T09:52:53;14.60;;;7.50;;
34711;SDS011;20941;42.408;25.634;2024-01-06T09:55:25;21.48;;;10.10;;
34711;SDS011;20941;42.408;25.634;2024-01-06T09:57:52;17.95;;;9.20;;
34711;SDS011;20941;42.408;25.634;2024-01-06T10:00:18;30.67;;;12.27;;
34711;SDS011;20941;42.408;25.634;2024-01-06T10:02:44;27.98;;;13.57;;
34711;SDS011;20941;42.408;25.634;2024-01-06T10:05:09;34.60;;;15.93;;
34711;SDS011;20941;42.408;25.634;2024-01-06T10:07:35;30.33;;;14.15;;
34711;SDS011;20941;42.408;25.634;2024-01-06T10:10:00;30.30;;;13.05;;
34711;SDS011;20941;42.408;25.634;2024-01-06T10:12:26;27.00;;;11.90;;
34711;SDS011;20941;42.408;25.634;2024-01-06T10:14:51;35.35;;;10.93;;
34711;SDS011;20941;42.408;25.634;2024-01-06T10:17:17;28.83;;;9.63;;
34711;SDS011;20941;42.408;25.634;2024-01-06T10:19:46;28.27;;;10.07;;
34711;SDS011;20941;42.408;25.634;2024-01-06T10:22:13;26.45;;;9.73;;
34711;SDS011;20941;42.408;25.634;2024-01-06T10:24:38;30.92;;;11.90;;
34711;SDS011;20941;42.408;25.634;2024-01-06T10:27:04;32.25;;;9.90;;
34711;SDS011;20941;42.408;25.634;2024-01-06T10:29:29;31.35;;;9.23;;
34711;SDS011;20941;42.408;25.634;2024-01-06T10:31:55;21.85;;;8.57;;
34711;SDS011;20941;42.408;25.634;2024-01-06T10:34:21;22.70;;;8.35;;
34711;SDS011;20941;42.408;25.634;2024-01-06T10:36:46;19.48;;;8.43;;
34711;SDS011;20941;42.408;25.634;2024-01-06T10:39:13;20.27;;;8.70;;
34711;SDS011;20941;42.408;25.634;2024-01-06T10:41:42;21.10;;;8.40;;
34711;SDS011;20941;42.408;25.634;2024-01-06T10:44:09;19.52;;;8.07;;
34711;SDS011;20941;42.408;25.634;2024-01-06T10:46:36;19.75;;;8.07;;
34711;SDS011;20941;42.408;25.634;2024-01-06T10:49:01;22.02;;;8.43;;
34711;SDS011;20941;42.408;25.634;2024-01-06T10:51:27;18.23;;;7.03;;
34711;SDS011;20941;42.408;25.634;2024-01-06T10:53:54;16.98;;;6.93;;
34711;SDS011;20941;42.408;25.634;2024-01-06T10:56:21;17.58;;;7.47;;
34711;SDS011;20941;42.408;25.634;2024-01-06T10:58:48;15.20;;;8.18;;
34711;SDS011;20941;42.408;25.634;2024-01-06T11:01:18;20.98;;;7.72;;
34711;SDS011;20941;42.408;25.634;2024-01-06T11:03:45;16.45;;;6.40;;
34711;SDS011;20941;42.408;25.634;2024-01-06T11:06:10;21.60;;;7.15;;
34711;SDS011;20941;42.408;25.634;2024-01-06T11:08:40;19.27;;;6.50;;
34711;SDS011;20941;42.408;25.634;2024-01-06T11:11:15;19.88;;;5.63;;
34711;SDS011;20941;42.408;25.634;2024-01-06T11:13:40;19.90;;;5.65;;
34711;SDS011;20941;42.408;25.634;2024-01-06T11:16:06;13.93;;;6.55;;
34711;SDS011;20941;42.408;25.634;2024-01-06T11:18:33;19.50;;;6.38;;
34711;SDS011;20941;42.408;25.634;2024-01-06T11:21:20;15.43;;;6.72;;
34711;SDS011;20941;42.408;25.634;2024-01-06T11:26:34;9.50;;;4.95;;
34711;SDS011;20941;42.408;25.634;2024-01-06T11:29:03;7.63;;;4.45;;
34711;SDS011;20941;42.408;25.634;2024-01-06T11:31:31;10.82;;;4.93;;
34711;SDS011;20941;42.408;25.634;2024-01-06T11:33:57;16.40;;;5.32;;
34711;SDS011;20941;42.408;25.634;2024-01-06T11:36:36;13.60;;;5.65;;
34711;SDS011;20941;42.408;25.634;2024-01-06T11:39:02;8.45;;;4.53;;
34711;SDS011;20941;42.408;25.634;2024-01-06T11:44:12;11.38;;;4.40;;
34711;SDS011;20941;42.408;25.634;2024-01-06T11:46:37;11.35;;;4.15;;
34711;SDS011;20941;42.408;25.634;2024-01-06T11:49:03;10.18;;;4.28;;
34711;SDS011;20941;42.408;25.634;2024-01-06T11:51:29;10.73;;;4.78;;
34711;SDS011;20941;42.408;25.634;2024-01-06T11:53:54;10.63;;;4.78;;
34711;SDS011;20941;42.408;25.634;2024-01-06T11:56:20;15.75;;;4.78;;
34711;SDS011;20941;42.408;25.634;2024-01-06T11:58:48;13.05;;;4.68;;
34711;SDS011;20941;42.408;25.634;2024-01-06T12:01:13;16.10;;;5.78;;
34711;SDS011;20941;42.408;25.634;2024-01-06T12:03:39;14.43;;;5.80;;
34711;SDS011;20941;42.408;25.634;2024-01-06T12:06:05;16.77;;;5.85;;
34711;SDS011;20941;42.408;25.634;2024-01-06T12:08:31;16.38;;;5.32;;
34711;SDS011;20941;42.408;25.634;2024-01-06T12:11:02;12.65;;;5.13;;
34711;SDS011;20941;42.408;25.634;2024-01-06T12:13:28;17.98;;;6.28;;
34711;SDS011;20941;42.408;25.634;2024-01-06T12:15:53;17.52;;;6.30;;
34711;SDS011;20941;42.408;25.634;2024-01-06T12:18:19;15.30;;;6.47;;
34711;SDS011;20941;42.408;25.634;2024-01-06T12:20:45;13.93;;;6.47;;
34711;SDS011;20941;42.408;25.634;2024-01-06T12:23:10;17.90;;;7.10;;
34711;SDS011;20941;42.408;25.634;2024-01-06T12:25:36;17.75;;;7.22;;
34711;SDS011;20941;42.408;25.634;2024-01-06T12:28:01;15.55;;;7.15;;
34711;SDS011;20941;42.408;25.634;2024-01-06T12:30:27;19.40;;;8.00;;
34711;SDS011;20941;42.408;25.634;2024-01-06T12:32:53;21.13;;;8.38;;
34711;SDS011;20941;42.408;25.634;2024-01-06T12:35:19;18.55;;;8.60;;
34711;SDS011;20941;42.408;25.634;2024-01-06T12:37:45;25.92;;;9.30;;
34711;SDS011;20941;42.408;25.634;2024-01-06T12:40:11;17.98;;;7.25;;
34711;SDS011;20941;42.408;25.634;2024-01-06T12:42:37;17.73;;;7.60;;
34711;SDS011;20941;42.408;25.634;2024-01-06T12:45:03;22.60;;;7.85;;
34711;SDS011;20941;42.408;25.634;2024-01-06T12:47:29;22.90;;;7.97;;
34711;SDS011;20941;42.408;25.634;2024-01-06T12:49:54;21.35;;;7.97;;
34711;SDS011;20941;42.408;25.634;2024-01-06T12:52:20;16.58;;;6.30;;
34711;SDS011;20941;42.408;25.634;2024-01-06T12:54:45;13.77;;;6.53;;
34711;SDS011;20941;42.408;25.634;2024-01-06T12:57:11;16.42;;;6.65;;
34711;SDS011;20941;42.408;25.634;2024-01-06T12:59:36;14.63;;;7.43;;
34711;SDS011;20941;42.408;25.634;2024-01-06T13:02:02;16.10;;;7.15;;
34711;SDS011;20941;42.408;25.634;2024-01-06T13:04:27;16.35;;;6.88;;
34711;SDS011;20941;42.408;25.634;2024-01-06T13:06:53;14.07;;;7.40;;
34711;SDS011;20941;42.408;25.634;2024-01-06T13:09:18;14.98;;;6.40;;
34711;SDS011;20941;42.408;25.634;2024-01-06T13:11:44;12.10;;;6.97;;
34711;SDS011;20941;42.408;25.634;2024-01-06T13:14:11;14.13;;;7.10;;
34711;SDS011;20941;42.408;25.634;2024-01-06T13:16:37;22.55;;;9.02;;
34711;SDS011;20941;42.408;25.634;2024-01-06T13:19:02;22.58;;;7.93;;
34711;SDS011;20941;42.408;25.634;2024-01-06T13:21:27;21.27;;;8.15;;
34711;SDS011;20941;42.408;25.634;2024-01-06T13:23:54;23.58;;;8.23;;
34711;SDS011;20941;42.408;25.634;2024-01-06T13:26:24;21.98;;;8.02;;
34711;SDS011;20941;42.408;25.634;2024-01-06T13:28:50;21.48;;;8.85;;
34711;SDS011;20941;42.408;25.634;2024-01-06T13:31:15;24.25;;;9.63;;
34711;SDS011;20941;42.408;25.634;2024-01-06T13:33:41;23.02;;;10.02;;
34711;SDS011;20941;42.408;25.634;2024-01-06T13:36:06;23.60;;;10.02;;
34711;SDS011;20941;42.408;25.634;2024-01-06T13:38:32;28.15;;;10.30;;
34711;SDS011;20941;42.408;25.634;2024-01-06T13:40:57;22.17;;;10.05;;
34711;SDS011;20941;42.408;25.634;2024-01-06T13:43:22;24.42;;;10.10;;
34711;SDS011;20941;42.408;25.634;2024-01-06T13:45:48;22.05;;;10.98;;
34711;SDS011;20941;42.408;25.634;2024-01-06T13:48:14;21.63;;;10.77;;
34711;SDS011;20941;42.408;25.634;2024-01-06T13:50:39;27.17;;;11.00;;
34711;SDS011;20941;42.408;25.634;2024-01-06T13:53:05;25.30;;;10.65;;
34711;SDS011;20941;42.408;25.634;2024-01-06T13:55:31;29.55;;;10.60;;
34711;SDS011;20941;42.408;25.634;2024-01-06T13:57:57;18.17;;;9.32;;
34711;SDS011;20941;42.408;25.634;2024-01-06T14:00:23;22.50;;;9.98;;
34711;SDS011;20941;42.408;25.634;2024-01-06T14:02:49;24.42;;;10.20;;
34711;SDS011;20941;42.408;25.634;2024-01-06T14:05:15;33.50;;;12.88;;
34711;SDS011;20941;42.408;25.634;2024-01-06T14:07:40;28.92;;;11.40;;
34711;SDS011;20941;42.408;25.634;2024-01-06T14:10:10;26.02;;;11.88;;
34711;SDS011;20941;42.408;25.634;2024-01-06T14:12:36;24.88;;;11.85;;
34711;SDS011;20941;42.408;25.634;2024-01-06T14:15:01;26.05;;;10.93;;